Time;durP1;ratioP1;P1;durP2;ratioP2;P2;SDS_P1;SDS_P2;PMS_P1;PMS_P2;Temp;Humidity;BMP_temperature;BMP_pressure;BME280_temperature;BME280_humidity;BME280_pressure;Samples;Min_cycle;Max_cycle;Signal;HPM_P1;HPM_P2
2022/12/09 00:00:07;;;;;;;52.45;23.85;;;;;;;4.13;85.20;101063.55;1818947;78;29658;-62
2022/12/09 00:02:36;;;;;;;63.48;25.15;;;;;;;4.02;85.21;101062.34;1818818;78;25785;-62
2022/12/09 00:05:04;;;;;;;48.17;22.32;;;;;;;4.01;85.49;101066.44;1785003;80;25750;-62
2022/12/09 00:07:34;;;;;;;59.50;25.02;;;;;;;4.00;85.63;101061.56;1819016;78;25778;-62
2022/12/09 00:10:04;;;;;;;62.73;24.63;;;;;;;4.00;85.55;101060.72;1786555;79;25696;-62
2022/12/09 00:12:30;;;;;;;53.50;24.98;;;;;;;3.97;85.59;101064.88;1819331;78;27592;-61
2022/12/09 00:14:57;;;;;;;57.08;25.00;;;;;;;3.95;85.69;101060.98;1818752;78;25701;-61
2022/12/09 00:17:24;;;;;;;54.20;24.80;;;;;;;3.95;85.67;101053.00;1785398;80;25505;-62
2022/12/09 00:19:50;;;;;;;66.05;25.08;;;;;;;3.95;85.77;101056.98;1818814;78;25706;-62
2022/12/09 00:22:17;;;;;;;57.27;25.08;;;;;;;3.96;85.73;101064.03;1786932;80;25807;-62
2022/12/09 00:24:44;;;;;;;54.45;24.45;;;;;;;3.99;85.71;101055.86;1812759;78;28219;-62
2022/12/09 00:27:11;;;;;;;51.88;24.92;;;;;;;4.01;85.85;101051.31;1761023;81;26096;-62
2022/12/09 00:29:37;;;;;;;52.50;22.93;;;;;;;4.03;85.75;101048.09;1792545;80;25910;-61
2022/12/09 00:32:04;;;;;;;53.48;23.22;;;;;;;4.02;85.89;101045.05;1792708;80;25777;-62
2022/12/09 00:34:33;;;;;;;51.02;24.87;;;;;;;4.04;86.09;101045.82;1792696;80;44073;-62
2022/12/09 00:37:00;;;;;;;55.35;24.45;;;;;;;4.10;86.34;101046.41;1759556;80;27481;-61
2022/12/09 00:39:27;;;;;;;55.25;24.30;;;;;;;4.14;86.44;101042.15;1792510;80;25701;-61
2022/12/09 00:41:54;;;;;;;62.35;24.00;;;;;;;4.19;86.67;101032.56;1792871;80;25792;-61
2022/12/09 00:44:20;;;;;;;52.67;23.45;;;;;;;4.25;86.72;101024.70;1792552;80;26543;-62
2022/12/09 00:46:47;;;;;;;46.75;24.23;;;;;;;4.27;86.71;101034.30;1792824;80;25854;-62
2022/12/09 00:49:14;;;;;;;51.80;22.52;;;;;;;4.32;87.00;101028.26;1792638;80;27533;-61
2022/12/09 00:51:41;;;;;;;57.25;24.12;;;;;;;4.34;87.00;101018.83;1792600;80;25646;-62
2022/12/09 00:54:08;;;;;;;47.03;22.00;;;;;;;4.37;86.96;101018.18;1805969;78;25557;-62
2022/12/09 00:56:35;;;;;;;46.02;21.42;;;;;;;4.42;87.13;101010.41;1818968;78;25770;-61
2022/12/09 00:59:02;;;;;;;42.80;20.65;;;;;;;4.49;87.33;101009.09;1818910;78;25705;-62
2022/12/09 01:01:29;;;;;;;44.67;21.57;;;;;;;4.52;87.10;101004.92;1818917;78;27455;-62
2022/12/09 01:03:56;;;;;;;44.25;20.80;;;;;;;4.53;86.92;100999.48;1818564;78;25820;-62
2022/12/09 01:06:25;;;;;;;44.03;19.92;;;;;;;4.48;86.49;101000.22;1820352;78;25719;-62
2022/12/09 01:08:53;;;;;;;38.88;19.20;;;;;;;4.44;86.51;100992.53;1824935;78;25828;-62
2022/12/09 01:11:25;;;;;;;39.98;19.95;;;;;;;4.43;86.73;100989.48;1825039;78;25445;-61
2022/12/09 01:13:52;;;;;;;39.75;19.77;;;;;;;4.40;86.49;100987.83;1824899;78;27474;-62
2022/12/09 01:16:24;;;;;;;40.75;20.10;;;;;;;4.32;86.28;100982.10;1824793;78;25776;-62
2022/12/09 01:18:53;;;;;;;42.53;19.40;;;;;;;4.30;86.86;100983.53;1824748;78;25774;-62
2022/12/09 01:21:20;;;;;;;40.03;19.30;;;;;;;4.31;86.91;100976.39;1824820;78;25928;-62
2022/12/09 01:23:47;;;;;;;33.08;16.75;;;;;;;4.31;87.04;100981.72;1825183;78;25803;-62
2022/12/09 01:26:13;;;;;;;36.95;18.27;;;;;;;4.31;87.19;100975.06;1796690;78;27484;-62
2022/12/09 01:28:40;;;;;;;33.95;18.12;;;;;;;4.29;87.02;100971.16;1783671;80;25670;-62
2022/12/09 01:31:16;;;;;;;31.77;17.12;;;;;;;4.29;87.13;100973.83;1783807;79;25756;-62
2022/12/09 01:33:43;;;;;;;32.85;17.60;;;;;;;4.27;87.09;100967.73;1784168;80;26423;-62
2022/12/09 01:36:18;;;;;;;32.28;17.25;;;;;;;4.30;87.51;100968.05;1783739;79;25780;-62
2022/12/09 01:38:47;;;;;;;31.30;16.62;;;;;;;4.39;87.75;100963.50;1783759;79;27460;-62
2022/12/09 01:41:16;;;;;;;34.78;17.07;;;;;;;4.43;87.69;100955.70;1783832;79;25961;-62
2022/12/09 01:43:44;;;;;;;30.85;16.35;;;;;;;4.48;87.60;100949.60;1784018;80;25700;-62
2022/12/09 01:46:11;;;;;;;34.23;17.25;;;;;;;4.56;87.65;100946.98;1783695;80;25934;-62
2022/12/09 01:48:43;;;;;;;32.13;15.23;;;;;;;4.62;87.77;100947.44;1784162;80;25791;-62
2022/12/09 01:51:18;;;;;;;33.55;16.57;;;;;;;4.70;87.71;100942.98;1784102;80;27631;-62
2022/12/09 01:53:49;;;;;;;31.37;16.17;;;;;;;4.76;87.59;100950.59;1794045;78;25926;-61
2022/12/09 01:56:29;;;;;;;33.53;17.82;;;;;;;4.79;86.97;100944.23;1788601;80;25770;-62
2022/12/09 01:59:01;;;;;;;31.10;16.73;;;;;;;4.79;86.87;100941.58;1788941;80;25805;-62
2022/12/09 02:01:28;;;;;;;30.80;15.83;;;;;;;4.77;86.78;100950.97;1788412;80;25989;-62
2022/12/09 02:03:55;;;;;;;34.55;16.95;;;;;;;4.74;86.69;100943.19;1788686;80;28422;-62
2022/12/09 02:06:22;;;;;;;35.23;18.30;;;;;;;4.79;86.72;100942.91;1788613;80;25795;-62
2022/12/09 02:08:51;;;;;;;35.30;17.50;;;;;;;4.78;86.66;100942.52;1788997;80;25600;-62
2022/12/09 02:11:23;;;;;;;36.23;16.75;;;;;;;4.81;86.68;100939.19;1788984;80;25871;-62
2022/12/09 02:14:01;;;;;;;39.50;19.30;;;;;;;4.88;87.01;100934.80;1789206;80;25698;-62
2022/12/09 02:16:46;;;;;;;39.65;18.35;;;;;;;4.90;86.60;100946.23;1788742;80;27479;-62
2022/12/09 02:19:40;;;;;;;37.75;18.17;;;;;;;4.91;86.64;100944.80;1788721;80;25683;-62
2022/12/09 02:22:09;;;;;;;29.75;16.97;;;;;;;4.94;86.83;100943.73;1750265;80;25826;-62
2022/12/09 02:24:47;;;;;;;35.68;17.30;;;;;;;5.00;86.99;100942.89;1791986;79;25739;-62
2022/12/09 02:27:33;;;;;;;31.30;17.30;;;;;;;5.05;87.18;100931.94;1805611;79;26388;-62
2022/12/09 02:30:14;;;;;;;34.27;17.75;;;;;;;5.12;87.13;100928.41;1805980;79;27634;-61
2022/12/09 02:33:14;;;;;;;31.52;17.37;;;;;;;5.10;86.58;100923.19;1805947;79;25715;-61
2022/12/09 02:35:47;;;;;;;32.70;17.07;;;;;;;5.12;86.87;100923.92;1805933;79;25763;-62
2022/12/09 02:38:19;;;;;;;36.77;18.30;;;;;;;5.15;86.73;100929.56;1806389;79;25856;-62
2022/12/09 02:41:01;;;;;;;34.60;17.75;;;;;;;5.11;86.16;100934.20;1805971;79;25836;-62
2022/12/09 02:43:33;;;;;;;31.95;17.00;;;;;;;5.07;86.13;100923.83;1805956;79;29539;-61
2022/12/09 02:46:02;;;;;;;32.03;16.80;;;;;;;5.01;85.35;100916.61;1805841;79;25733;-62
2022/12/09 02:48:40;;;;;;;33.00;17.40;;;;;;;4.93;84.99;100914.06;1806451;79;25798;-62
2022/12/09 02:51:12;;;;;;;33.30;17.35;;;;;;;4.85;85.03;100902.53;1805987;79;25778;-62
2022/12/09 02:53:41;;;;;;;36.50;17.48;;;;;;;4.81;85.31;100897.00;1798141;79;25738;-62
2022/12/09 02:56:11;;;;;;;33.75;16.10;;;;;;;4.77;85.44;100911.48;1788728;80;27450;-62
2022/12/09 02:58:39;;;;;;;31.97;18.00;;;;;;;4.75;85.62;100913.38;1789175;80;25739;-61
2022/12/09 03:01:23;;;;;;;31.77;16.23;;;;;;;4.72;85.67;100918.44;1788953;80;25746;-62
2022/12/09 03:03:53;;;;;;;34.85;17.73;;;;;;;4.70;85.31;100920.33;1788222;80;25899;-62
2022/12/09 03:06:26;;;;;;;43.73;21.25;;;;;;;4.68;85.38;100919.56;1788839;80;25692;-62
2022/12/09 03:09:01;;;;;;;46.40;21.62;;;;;;;4.66;85.52;100916.16;1783154;80;27471;-62
2022/12/09 03:11:31;;;;;;;42.62;20.88;;;;;;;4.63;85.56;100923.84;1782933;80;25636;-62
2022/12/09 03:14:09;;;;;;;38.65;20.08;;;;;;;4.63;86.10;100913.18;1783256;80;25802;-62
2022/12/09 03:16:48;;;;;;;37.55;19.05;;;;;;;4.64;86.25;100906.91;1782780;80;26811;-62
2022/12/09 03:19:32;;;;;;;37.10;19.32;;;;;;;4.68;86.46;100911.56;1783122;80;25699;-62
2022/12/09 03:22:04;;;;;;;38.40;19.35;;;;;;;4.73;86.93;100909.95;1783089;80;28190;-61
2022/12/09 03:24:44;;;;;;;43.20;19.70;;;;;;;4.79;87.19;100902.92;1785321;79;25714;-62
2022/12/09 03:27:16;;;;;;;46.05;22.13;;;;;;;4.82;87.11;100904.05;1803032;79;25819;-62
2022/12/09 03:29:47;;;;;;;38.15;19.30;;;;;;;4.83;87.14;100897.31;1802892;79;25937;-62
2022/12/09 03:32:18;;;;;;;40.78;20.52;;;;;;;4.82;87.16;100898.72;1802963;79;26155;-62
2022/12/09 03:34:47;;;;;;;36.58;19.15;;;;;;;4.88;87.53;100904.14;1803157;79;27385;-62
2022/12/09 03:37:17;;;;;;;38.23;20.70;;;;;;;4.94;87.62;100895.30;1802899;79;25721;-62
2022/12/09 03:39:46;;;;;;;36.88;19.30;;;;;;;5.04;87.83;100899.55;1803089;79;25662;-61
2022/12/09 03:42:21;;;;;;;37.42;20.05;;;;;;;5.13;87.96;100898.13;1803157;79;26681;-63
2022/12/09 03:44:53;;;;;;;46.18;19.70;;;;;;;5.17;87.80;100892.95;1803279;79;25800;-62
2022/12/09 03:47:21;;;;;;;41.10;19.90;;;;;;;5.26;87.95;100895.03;1802900;79;27478;-63
2022/12/09 03:49:48;;;;;;;40.38;20.02;;;;;;;5.30;88.06;100893.02;1802856;79;25987;-63
2022/12/09 03:52:24;;;;;;;40.33;19.77;;;;;;;5.33;87.76;100890.17;1802990;79;25776;-63
2022/12/09 03:54:59;;;;;;;41.63;20.35;;;;;;;5.38;87.83;100873.38;1784853;78;25857;-63
2022/12/09 03:57:27;;;;;;;42.43;19.87;;;;;;;5.44;87.64;100872.99;1783167;80;25776;-63
2022/12/09 03:59:58;;;;;;;37.65;21.05;;;;;;;5.46;87.46;100871.09;1752702;80;27489;-62
2022/12/09 04:02:26;;;;;;;42.60;21.25;;;;;;;5.49;87.33;100872.69;1782699;80;25820;-62
2022/12/09 04:04:53;;;;;;;41.20;20.43;;;;;;;5.53;87.19;100861.33;1783356;80;25721;-62
2022/12/09 04:07:21;;;;;;;43.68;20.82;;;;;;;5.54;87.11;100874.56;1784012;80;25918;-62
2022/12/09 04:09:50;;;;;;;40.28;20.05;;;;;;;5.58;87.23;100877.88;1788890;80;25755;-62
2022/12/09 04:12:19;;;;;;;47.40;21.55;;;;;;;5.59;87.05;100877.80;1788808;80;27469;-62
2022/12/09 04:14:47;;;;;;;39.25;19.77;;;;;;;5.62;87.14;100870.91;1788033;80;25762;-62
2022/12/09 04:17:14;;;;;;;41.15;20.77;;;;;;;5.65;86.98;100867.17;1788576;80;25802;-62
2022/12/09 04:19:41;;;;;;;45.48;20.77;;;;;;;5.66;86.75;100860.88;1788823;80;25734;-62
2022/12/09 04:22:11;;;;;;;47.48;22.00;;;;;;;5.66;86.72;100854.70;1759848;80;25739;-62
2022/12/09 04:24:38;;;;;;;43.87;23.55;;;;;;;5.66;86.88;100853.37;1792270;79;27293;-62
2022/12/09 04:27:05;;;;;;;40.60;20.32;;;;;;;5.69;87.16;100855.84;1811148;78;25787;-62
2022/12/09 04:29:33;;;;;;;37.00;20.70;;;;;;;5.72;87.11;100855.62;1811687;79;25729;-62
2022/12/09 04:32:00;;;;;;;38.13;20.23;;;;;;;5.76;86.96;100853.13;1811227;79;25838;-62
2022/12/09 04:34:35;;;;;;;43.78;21.73;;;;;;;5.80;86.88;100860.83;1811632;79;25485;-62
2022/12/09 04:37:01;;;;;;;40.48;21.12;;;;;;;5.83;86.89;100845.08;1810929;79;27540;-62
2022/12/09 04:39:27;;;;;;;43.73;20.48;;;;;;;5.86;86.74;100845.34;1811307;78;25687;-62
2022/12/09 04:41:58;;;;;;;41.13;20.32;;;;;;;5.84;86.26;100852.13;1811446;78;25735;-62
2022/12/09 04:44:24;;;;;;;43.28;21.93;;;;;;;5.82;86.41;100859.39;1811112;79;25779;-62
2022/12/09 04:46:51;;;;;;;39.38;20.05;;;;;;;5.83;86.75;100867.78;1811181;79;25727;-62
2022/12/09 04:49:19;;;;;;;38.98;20.95;;;;;;;5.83;86.48;100878.45;1811363;78;27457;-62
2022/12/09 04:51:47;;;;;;;37.38;20.75;;;;;;;5.80;86.27;100872.84;1811168;79;25777;-61
2022/12/09 04:54:14;;;;;;;39.92;20.57;;;;;;;5.80;86.35;100867.97;1795904;78;25806;-62
2022/12/09 04:56:41;;;;;;;40.00;21.42;;;;;;;5.76;86.07;100869.99;1788566;80;25990;-62
2022/12/09 04:59:08;;;;;;;41.50;22.70;;;;;;;5.73;86.18;100870.68;1788924;80;25723;-62
2022/12/09 05:01:35;;;;;;;39.55;22.10;;;;;;;5.70;86.17;100877.55;1788704;80;27412;-62
2022/12/09 05:04:03;;;;;;;36.53;19.35;;;;;;;5.66;86.05;100873.39;1788748;80;25803;-63
2022/12/09 05:06:29;;;;;;;42.90;22.27;;;;;;;5.63;86.18;100875.30;1788965;80;25803;-62
2022/12/09 05:08:57;;;;;;;37.83;20.17;;;;;;;5.58;86.10;100873.42;1784379;80;25806;-62
2022/12/09 05:11:24;;;;;;;48.40;23.07;;;;;;;5.55;86.03;100878.11;1782804;80;25802;-62
2022/12/09 05:13:53;;;;;;;42.25;23.32;;;;;;;5.49;85.97;100881.54;1782872;80;27637;-62
2022/12/09 05:16:20;;;;;;;43.85;23.42;;;;;;;5.46;85.91;100879.55;1781816;80;25522;-62
2022/12/09 05:18:48;;;;;;;47.08;22.25;;;;;;;5.40;85.76;100879.47;1783009;80;25503;-62
2022/12/09 05:21:18;;;;;;;42.75;22.82;;;;;;;5.38;85.75;100890.72;1789159;78;25952;-62
2022/12/09 05:23:45;;;;;;;52.98;24.80;;;;;;;5.37;85.83;100889.48;1785116;80;25829;-62
2022/12/09 05:26:17;;;;;;;63.02;34.73;;;;;;;5.34;85.82;100891.88;1791213;79;28139;-62
2022/12/09 05:28:44;;;;;;;48.73;27.13;;;;;;;5.32;86.24;100883.99;1791517;78;25805;-62
2022/12/09 05:31:15;;;;;;;49.77;25.65;;;;;;;5.37;86.63;100870.81;1792731;78;25782;-62
2022/12/09 05:33:43;;;;;;;43.05;22.27;;;;;;;5.38;86.68;100884.05;1788838;78;25856;-62
2022/12/09 05:36:12;;;;;;;45.78;23.20;;;;;;;5.43;86.83;100886.41;1785391;80;25450;-62
2022/12/09 05:38:39;;;;;;;40.10;21.52;;;;;;;5.51;87.17;100876.59;1784715;80;27578;-62
2022/12/09 05:41:07;;;;;;;41.18;21.60;;;;;;;5.57;87.30;100874.84;1784981;80;25434;-63
2022/12/09 05:43:35;;;;;;;45.23;24.12;;;;;;;5.64;87.65;100880.17;1790075;78;25867;-63
2022/12/09 05:46:04;;;;;;;51.48;24.77;;;;;;;5.67;87.77;100883.95;1789182;78;25731;-62
2022/12/09 05:48:31;;;;;;;44.65;22.42;;;;;;;5.70;87.82;100878.42;1786951;78;25974;-62
2022/12/09 05:51:09;;;;;;;41.20;22.15;;;;;;;5.76;88.01;100880.67;1788399;78;28301;-62
2022/12/09 05:53:36;;;;;;;39.98;20.72;;;;;;;5.83;87.76;100885.63;1797645;78;25964;-63
2022/12/09 05:56:04;;;;;;;48.65;25.37;;;;;;;5.89;87.73;100888.71;1801004;78;25770;-62
2022/12/09 05:58:31;;;;;;;41.45;22.75;;;;;;;5.89;86.96;100888.71;1800779;78;26595;-62
2022/12/09 06:01:07;;;;;;;41.05;22.45;;;;;;;5.86;86.80;100892.95;1819097;78;26426;-62
2022/12/09 06:03:35;;;;;;;41.77;21.97;;;;;;;5.87;86.96;100893.30;1794093;78;27501;-62
2022/12/09 06:06:11;;;;;;;53.40;23.22;;;;;;;5.88;86.87;100893.67;1790429;78;25806;-62
2022/12/09 06:08:39;;;;;;;50.40;24.50;;;;;;;5.91;87.13;100892.63;1784843;80;25751;-62
2022/12/09 06:11:15;;;;;;;46.35;23.67;;;;;;;5.88;86.80;100891.49;1785139;80;25927;-62
2022/12/09 06:13:42;;;;;;;48.00;25.20;;;;;;;5.87;86.57;100889.28;1752651;81;25586;-61
2022/12/09 06:16:10;;;;;;;53.42;27.35;;;;;;;5.92;87.09;100896.98;1785131;80;28309;-62
2022/12/09 06:18:37;;;;;;;50.58;25.95;;;;;;;6.00;87.18;100895.19;1754127;80;25743;-62
2022/12/09 06:21:07;;;;;;;46.80;25.17;;;;;;;6.06;87.32;100896.97;1785158;80;25761;-61
2022/12/09 06:23:35;;;;;;;53.38;24.77;;;;;;;6.15;87.52;100900.81;1786417;80;25936;-62
2022/12/09 06:26:04;;;;;;;62.20;27.52;;;;;;;6.24;87.60;100899.34;1783846;80;25759;-62
2022/12/09 06:28:31;;;;;;;59.80;28.80;;;;;;;6.32;87.73;100905.51;1783003;80;27637;-62
2022/12/09 06:30:58;;;;;;;62.67;30.45;;;;;;;6.39;87.51;100913.47;1783044;80;26185;-61
2022/12/09 06:33:25;;;;;;;54.05;25.97;;;;;;;6.42;87.18;100907.89;1782975;80;25791;-62
2022/12/09 06:35:52;;;;;;;64.53;27.80;;;;;;;6.45;86.88;100917.05;1779187;79;26624;-62
2022/12/09 06:38:19;;;;;;;64.97;31.00;;;;;;;6.46;86.60;100915.22;1778217;80;25632;-62
2022/12/09 06:40:46;;;;;;;59.50;29.35;;;;;;;6.42;85.89;100915.91;1778533;79;28503;-62
2022/12/09 06:43:12;;;;;;;64.35;30.35;;;;;;;6.40;86.01;100921.37;1777756;80;25839;-62
2022/12/09 06:45:39;;;;;;;57.05;29.55;;;;;;;6.41;85.87;100919.54;1778422;80;25788;-62
2022/12/09 06:48:06;;;;;;;61.60;29.90;;;;;;;6.40;85.59;100921.87;1777923;80;25842;-62
2022/12/09 06:50:33;;;;;;;57.83;29.12;;;;;;;6.40;85.46;100920.53;1778378;80;26341;-61
2022/12/09 06:53:00;;;;;;;66.20;30.37;;;;;;;6.34;85.02;100920.93;1785127;78;27684;-62
2022/12/09 06:55:27;;;;;;;62.55;29.87;;;;;;;6.30;85.16;100918.95;1783929;78;25940;-62
2022/12/09 06:57:54;;;;;;;65.22;30.40;;;;;;;6.29;85.24;100918.58;1783162;80;25791;-62
2022/12/09 07:00:21;;;;;;;63.08;29.95;;;;;;;6.25;84.57;100919.27;1783057;80;25803;-62
2022/12/09 07:02:48;;;;;;;67.08;31.12;;;;;;;6.17;84.34;100924.27;1783101;80;25740;-62
2022/12/09 07:05:14;;;;;;;64.25;29.40;;;;;;;6.10;84.40;100921.16;1782971;80;27260;-62
2022/12/09 07:07:41;;;;;;;65.55;32.13;;;;;;;6.04;84.50;100915.39;1783058;80;25794;-62
2022/12/09 07:10:09;;;;;;;66.70;31.45;;;;;;;6.03;84.69;100915.02;1788133;80;25798;-62
2022/12/09 07:12:36;;;;;;;65.92;30.70;;;;;;;5.98;84.49;100924.64;1789297;80;26422;-61
2022/12/09 07:15:05;;;;;;;54.38;27.67;;;;;;;5.92;84.41;100928.57;1788873;80;25719;-62
2022/12/09 07:17:32;;;;;;;55.67;25.02;;;;;;;5.86;84.51;100920.11;1788908;80;27583;-62
2022/12/09 07:19:59;;;;;;;54.65;24.75;;;;;;;5.79;84.29;100930.33;1795589;78;25785;-61
2022/12/09 07:22:26;;;;;;;56.83;27.67;;;;;;;5.79;84.71;100928.99;1792322;78;25782;-61
2022/12/09 07:24:52;;;;;;;71.62;27.90;;;;;;;5.80;85.03;100938.25;1799606;78;26765;-62
2022/12/09 07:27:19;;;;;;;58.70;28.02;;;;;;;5.84;85.14;100946.04;1793123;78;25740;-62
2022/12/09 07:29:46;;;;;;;78.52;36.98;;;;;;;5.90;85.49;100947.83;1790780;80;27384;-62
2022/12/09 07:32:12;;;;;;;81.57;40.52;;;;;;;5.98;85.72;100954.47;1790650;80;25822;-61
2022/12/09 07:34:40;;;;;;;94.20;44.88;;;;;;;6.05;86.02;100946.48;1790737;80;25805;-62
2022/12/09 07:37:07;;;;;;;77.37;33.67;;;;;;;6.16;86.35;100943.09;1790783;80;25755;-62
2022/12/09 07:39:34;;;;;;;77.92;35.80;;;;;;;6.21;85.76;100951.17;1790800;80;25739;-61
2022/12/09 07:42:00;;;;;;;65.05;30.95;;;;;;;6.25;85.88;100947.81;1790736;80;27486;-62
2022/12/09 07:44:29;;;;;;;56.83;28.98;;;;;;;6.34;85.90;100937.84;1790624;80;25826;-62
2022/12/09 07:46:56;;;;;;;74.58;35.60;;;;;;;6.42;85.81;100941.30;1762132;80;25700;-61
2022/12/09 07:49:23;;;;;;;65.30;31.85;;;;;;;6.47;85.42;100949.88;1790733;80;25796;-62
2022/12/09 07:51:50;;;;;;;64.92;30.92;;;;;;;6.49;85.18;100943.95;1790632;80;25762;-62
2022/12/09 07:54:19;;;;;;;71.45;29.50;;;;;;;6.62;85.86;100948.43;1796781;78;27502;-62
2022/12/09 07:56:46;;;;;;;63.83;28.65;;;;;;;6.73;85.43;100945.37;1789030;78;25817;-62
2022/12/09 07:59:14;;;;;;;52.78;26.12;;;;;;;6.81;85.08;100938.67;1793024;78;25477;-62
2022/12/09 08:01:41;;;;;;;60.17;28.32;;;;;;;6.92;85.05;100940.08;1798580;78;26806;-62
2022/12/09 08:04:08;;;;;;;54.67;29.45;;;;;;;6.98;84.65;100938.33;1800696;78;25872;-62
2022/12/09 08:06:35;;;;;;;48.63;23.35;;;;;;;7.07;84.50;100940.81;1767064;80;27592;-61
2022/12/09 08:09:07;;;;;;;48.60;25.65;;;;;;;7.20;84.77;100947.02;1809388;78;25947;-62
2022/12/09 08:11:33;;;;;;;41.77;23.18;;;;;;;7.31;84.53;100941.34;1779546;80;25802;-61
2022/12/09 08:14:04;;;;;;;37.45;20.32;;;;;;;7.36;84.06;100948.08;1770440;78;27911;-62
2022/12/09 08:16:32;;;;;;;38.83;21.62;;;;;;;7.43;83.52;100953.02;1785511;78;25840;-62
2022/12/09 08:18:59;;;;;;;40.65;21.57;;;;;;;7.50;83.22;100955.11;1785132;80;27560;-62
2022/12/09 08:21:29;;;;;;;37.70;20.23;;;;;;;7.62;83.24;100949.34;1787363;78;25702;-62
2022/12/09 08:24:00;;;;;;;37.55;21.17;;;;;;;7.70;81.92;100935.39;1791621;78;25452;-62
2022/12/09 08:26:30;;;;;;;41.73;23.42;;;;;;;7.77;82.05;100926.43;1793058;78;25849;-62
2022/12/09 08:28:57;;;;;;;40.43;20.82;;;;;;;7.76;81.75;100926.89;1790433;78;26081;-62
2022/12/09 08:31:26;;;;;;;35.65;19.95;;;;;;;7.81;81.54;100924.75;1790465;78;27356;-62
2022/12/09 08:33:54;;;;;;;37.78;20.17;;;;;;;7.88;81.19;100922.94;1793356;78;25749;-62
2022/12/09 08:36:24;;;;;;;36.60;20.57;;;;;;;7.95;81.21;100907.64;1799022;78;25793;-61
2022/12/09 08:38:52;;;;;;;42.62;20.45;;;;;;;8.07;81.12;100896.48;1786656;78;26434;-62
2022/12/09 08:41:33;;;;;;;36.25;20.27;;;;;;;8.19;81.09;100905.89;1789536;78;25748;-61
2022/12/09 08:43:55;;;;;;;38.85;20.77;;;;;;;8.24;80.50;100895.20;1785799;79;27544;-62
2022/12/09 08:46:21;;;;;;;37.45;20.05;;;;;;;8.60;80.23;100897.83;1786916;80;25762;-62
2022/12/09 08:48:49;;;;;;;37.10;20.48;;;;;;;9.28;79.25;100884.87;1786649;80;25763;-62
2022/12/09 08:51:17;;;;;;;31.25;19.07;;;;;;;9.85;78.54;100881.52;1786507;78;25833;-62
2022/12/09 08:53:43;;;;;;;34.03;17.32;;;;;;;10.61;76.56;100880.02;1785737;79;25713;-62
2022/12/09 08:56:13;;;;;;;29.72;17.70;;;;;;;11.20;75.59;100880.23;1782792;80;27685;-62
2022/12/09 08:58:41;;;;;;;23.57;13.98;;;;;;;11.79;75.67;100884.86;1782828;80;25791;-62
2022/12/09 09:01:19;;;;;;;24.63;15.35;;;;;;;12.24;75.14;100882.11;1783095;80;25801;-62
2022/12/09 09:03:48;;;;;;;19.67;13.30;;;;;;;12.62;73.97;100885.21;1781839;80;25756;-62
2022/12/09 09:06:16;;;;;;;19.62;13.08;;;;;;;12.58;70.63;100889.70;1782966;80;25723;-62
2022/12/09 09:08:44;;;;;;;32.80;15.68;;;;;;;12.43;69.76;100880.70;1782855;80;27688;-62
2022/12/09 09:11:15;;;;;;;23.73;16.67;;;;;;;12.96;67.72;100871.63;1782695;80;25826;-62
2022/12/09 09:13:43;;;;;;;24.60;15.32;;;;;;;13.49;68.66;100871.95;1783122;80;25719;-62
2022/12/09 09:16:14;;;;;;;29.18;16.77;;;;;;;13.72;66.60;100871.84;1782877;80;25949;-61
2022/12/09 09:18:42;;;;;;;32.93;16.23;;;;;;;13.51;67.06;100870.80;1803900;78;25851;-62
2022/12/09 09:21:13;;;;;;;25.27;16.35;;;;;;;14.03;67.19;100864.66;1818789;78;27464;-62
2022/12/09 09:23:41;;;;;;;26.52;17.50;;;;;;;14.67;65.69;100861.73;1818999;78;26053;-62
2022/12/09 09:26:17;;;;;;;26.15;17.90;;;;;;;15.17;65.09;100856.55;1789839;78;25427;-62
2022/12/09 09:28:45;;;;;;;29.48;17.77;;;;;;;15.59;63.98;100854.27;1786180;78;25877;-62
2022/12/09 09:31:16;;;;;;;22.75;16.35;;;;;;;16.07;63.09;100854.48;1801832;78;25737;-62
2022/12/09 09:33:44;;;;;;;28.15;16.90;;;;;;;16.55;61.92;100855.10;1785469;80;28450;-63
2022/12/09 09:36:16;;;;;;;29.45;16.07;;;;;;;16.93;58.18;100861.25;1794507;78;25650;-62
2022/12/09 09:38:43;;;;;;;24.12;16.42;;;;;;;17.17;58.10;100858.98;1814086;78;25507;-62
2022/12/09 09:41:21;;;;;;;20.77;15.48;;;;;;;17.52;56.01;100859.45;1818667;78;25770;-62
2022/12/09 09:43:48;;;;;;;24.02;14.87;;;;;;;17.76;56.36;100855.72;1817791;78;26131;-63
2022/12/09 09:46:32;;;;;;;19.75;13.98;;;;;;;18.10;56.02;100853.61;1818944;78;27644;-63
2022/12/09 09:49:01;;;;;;;23.47;15.75;;;;;;;18.48;55.13;100851.37;1818658;78;25615;-63
2022/12/09 09:51:29;;;;;;;22.35;14.20;;;;;;;18.81;53.50;100850.48;1818940;78;25729;-63
2022/12/09 09:53:56;;;;;;;19.65;14.38;;;;;;;18.85;52.80;100842.78;1772667;80;25953;-62
2022/12/09 09:56:39;;;;;;;16.82;12.55;;;;;;;18.84;52.56;100835.63;1775478;80;25521;-63
2022/12/09 09:59:37;;;;;;;15.40;11.83;;;;;;;19.09;52.99;100841.66;1775577;80;27466;-63
2022/12/09 10:03:00;;;;;;;16.00;12.88;;;;;;;19.35;51.27;100843.00;1775432;80;25823;-63
2022/12/09 10:05:56;;;;;;;17.85;12.65;;;;;;;19.59;51.59;100841.77;1775445;80;25717;-63
2022/12/09 10:08:57;;;;;;;20.20;12.47;;;;;;;19.93;48.97;100836.66;1774528;80;25784;-62
2022/12/09 10:11:35;;;;;;;18.02;11.97;;;;;;;20.16;48.83;100837.80;1775386;80;25777;-62
2022/12/09 10:14:20;;;;;;;17.23;11.85;;;;;;;20.35;47.68;100841.70;1775184;79;27665;-63
2022/12/09 10:17:03;;;;;;;18.92;13.03;;;;;;;20.64;47.43;100843.39;1775576;80;26440;-62
2022/12/09 10:19:45;;;;;;;18.35;13.18;;;;;;;20.89;45.55;100842.05;1775247;79;25775;-62
2022/12/09 10:22:17;;;;;;;20.45;12.25;;;;;;;21.22;46.05;100836.73;1775351;80;25975;-62
2022/12/09 10:24:59;;;;;;;16.12;11.93;;;;;;;21.54;45.49;100834.81;1785800;78;25775;-63
2022/12/09 10:27:40;;;;;;;15.98;12.07;;;;;;;21.73;43.73;100828.56;1822375;78;27653;-63
2022/12/09 10:30:14;;;;;;;18.35;11.97;;;;;;;22.08;43.50;100822.05;1822107;78;25692;-63
2022/12/09 10:32:41;;;;;;;18.00;10.65;;;;;;;22.49;43.73;100818.22;1822297;78;25961;-62
2022/12/09 10:35:22;;;;;;;14.63;10.93;;;;;;;23.01;41.72;100811.92;1822289;78;25773;-63
2022/12/09 10:37:51;;;;;;;17.32;12.00;;;;;;;23.35;39.92;100815.91;1820860;78;25706;-62
2022/12/09 10:40:48;;;;;;;13.38;10.13;;;;;;;23.49;38.36;100809.25;1823596;78;28228;-63
2022/12/09 10:43:36;;;;;;;16.07;10.13;;;;;;;23.47;38.51;100810.03;1832757;78;26035;-62
2022/12/09 10:46:17;;;;;;;18.70;10.80;;;;;;;23.51;37.94;100807.14;1832670;78;25725;-62
2022/12/09 10:48:52;;;;;;;14.30;11.15;;;;;;;23.69;39.07;100807.77;1831151;78;25769;-63
2022/12/09 10:51:33;;;;;;;12.53;10.00;;;;;;;23.79;38.23;100799.02;1832684;78;25859;-62
2022/12/09 10:54:14;;;;;;;12.68;9.48;;;;;;;23.36;38.12;100795.09;1810243;78;28446;-62
2022/12/09 10:57:08;;;;;;;11.75;8.85;;;;;;;23.23;37.69;100795.19;1781994;80;26570;-63
2022/12/09 10:59:35;;;;;;;;;;;;;;;23.17;37.08;100790.55;1785804;80;25704;-63
2022/12/09 11:02:10;;;;;;;13.43;9.73;;;;;;;22.94;37.75;100785.91;1752268;81;25749;-63
2022/12/09 11:04:41;;;;;;;13.03;9.83;;;;;;;23.28;38.51;100789.86;1751109;81;26048;-63
2022/12/09 11:07:24;;;;;;;15.60;9.48;;;;;;;23.58;36.90;100789.25;1750653;81;27443;-63
2022/12/09 11:10:02;;;;;;;14.45;9.75;;;;;;;23.86;36.87;100781.11;1748290;81;25675;-63
2022/12/09 11:12:37;;;;;;;10.88;8.03;;;;;;;24.13;36.93;100783.65;1755598;81;25455;-63
2022/12/09 11:15:08;;;;;;;11.55;8.53;;;;;;;24.18;36.20;100779.67;1755352;81;26000;-63
2022/12/09 11:17:38;;;;;;;11.35;9.80;;;;;;;24.12;35.24;100783.34;1755379;81;26182;-62
2022/12/09 11:20:21;;;;;;;14.35;11.00;;;;;;;23.81;35.43;100777.66;1782838;80;27521;-63
2022/12/09 11:23:05;;;;;;;15.35;11.22;;;;;;;23.45;35.87;100779.20;1783052;80;25776;-63
2022/12/09 11:25:35;;;;;;;17.62;11.50;;;;;;;23.12;36.99;100773.38;1794516;78;25791;-63
2022/12/09 11:28:19;;;;;;;17.85;11.97;;;;;;;22.58;36.24;100770.02;1785793;79;25933;-63
2022/12/09 11:31:10;;;;;;;14.95;11.22;;;;;;;21.78;36.94;100764.96;1799767;78;26047;-63
2022/12/09 11:33:39;;;;;;;14.63;10.15;;;;;;;21.13;37.98;100768.75;1779551;78;27706;-62